sensor_id;sensor_type;location;lat;lon;timestamp;pressure;altitude;pressure_sealevel;temperature;humidity
26978;BME280;56314;48.088;11.642;2023-07-09T00:02:13;95857.72;;;20.28;67.01
26978;BME280;56314;48.088;11.642;2023-07-09T00:04:39;95857.25;;;20.17;67.72
26978;BME280;56314;48.088;11.642;2023-07-09T00:07:05;95856.56;;;20.14;68.35
26978;BME280;56314;48.088;11.642;2023-07-09T00:09:31;95844.06;;;20.07;68.18
26978;BME280;56314;48.088;11.642;2023-07-09T00:11:57;95847.41;;;20.01;68.31
26978;BME280;56314;48.088;11.642;2023-07-09T00:14:23;95857.06;;;19.93;68.63
26978;BME280;56314;48.088;11.642;2023-07-09T00:16:48;95863.06;;;19.95;68.60
26978;BME280;56314;48.088;11.642;2023-07-09T00:19:16;95861.56;;;19.93;69.16
26978;BME280;56314;48.088;11.642;2023-07-09T00:21:43;95858.72;;;19.86;69.69
26978;BME280;56314;48.088;11.642;2023-07-09T00:24:13;95858.88;;;19.84;69.40
26978;BME280;56314;48.088;11.642;2023-07-09T00:26:40;95861.69;;;19.83;69.29
26978;BME280;56314;48.088;11.642;2023-07-09T00:29:11;95866.03;;;19.84;69.64
26978;BME280;56314;48.088;11.642;2023-07-09T00:31:37;95869.19;;;19.79;70.16
26978;BME280;56314;48.088;11.642;2023-07-09T00:34:10;95866.16;;;19.74;70.02
26978;BME280;56314;48.088;11.642;2023-07-09T00:36:39;95864.34;;;19.66;69.78
26978;BME280;56314;48.088;11.642;2023-07-09T00:39:15;95869.50;;;19.68;69.58
26978;BME280;56314;48.088;11.642;2023-07-09T00:41:41;95863.84;;;19.71;68.99
26978;BME280;56314;48.088;11.642;2023-07-09T00:44:25;95869.50;;;19.68;68.87
26978;BME280;56314;48.088;11.642;2023-07-09T00:49:34;95868.63;;;19.59;69.23
26978;BME280;56314;48.088;11.642;2023-07-09T00:52:12;95873.97;;;19.59;69.89
26978;BME280;56314;48.088;11.642;2023-07-09T00:54:45;95887.28;;;19.59;69.95
26978;BME280;56314;48.088;11.642;2023-07-09T00:57:17;95879.97;;;19.53;70.49
26978;BME280;56314;48.088;11.642;2023-07-09T00:59:48;95886.09;;;19.53;70.58
26978;BME280;56314;48.088;11.642;2023-07-09T01:02:14;95883.13;;;19.57;70.70
26978;BME280;56314;48.088;11.642;2023-07-09T01:04:40;95886.28;;;19.52;70.88
26978;BME280;56314;48.088;11.642;2023-07-09T01:07:06;95878.78;;;19.47;70.72
26978;BME280;56314;48.088;11.642;2023-07-09T01:09:33;95881.59;;;19.46;70.36
26978;BME280;56314;48.088;11.642;2023-07-09T01:12:03;95877.91;;;19.38;71.06
26978;BME280;56314;48.088;11.642;2023-07-09T01:14:31;95885.06;;;19.38;71.50
26978;BME280;56314;48.088;11.642;2023-07-09T01:17:01;95886.38;;;19.34;71.62
26978;BME280;56314;48.088;11.642;2023-07-09T01:19:37;95887.50;;;19.23;71.34
26978;BME280;56314;48.088;11.642;2023-07-09T01:22:09;95884.03;;;19.22;72.01
26978;BME280;56314;48.088;11.642;2023-07-09T01:24:52;95892.81;;;19.23;71.95
26978;BME280;56314;48.088;11.642;2023-07-09T01:27:26;95883.69;;;19.26;71.99
26978;BME280;56314;48.088;11.642;2023-07-09T01:29:53;95886.69;;;19.22;71.95
26978;BME280;56314;48.088;11.642;2023-07-09T01:32:20;95889.19;;;19.24;72.35
26978;BME280;56314;48.088;11.642;2023-07-09T01:34:48;95893.34;;;19.27;71.83
26978;BME280;56314;48.088;11.642;2023-07-09T01:37:16;95892.50;;;19.26;72.52
26978;BME280;56314;48.088;11.642;2023-07-09T01:39:41;95897.28;;;19.14;72.44
26978;BME280;56314;48.088;11.642;2023-07-09T01:42:07;95898.25;;;19.13;72.87
26978;BME280;56314;48.088;11.642;2023-07-09T01:44:34;95895.59;;;19.13;72.66
26978;BME280;56314;48.088;11.642;2023-07-09T01:47:01;95891.94;;;19.14;72.86
26978;BME280;56314;48.088;11.642;2023-07-09T01:49:30;95894.97;;;19.11;73.16
26978;BME280;56314;48.088;11.642;2023-07-09T01:51:58;95899.75;;;19.07;73.55
26978;BME280;56314;48.088;11.642;2023-07-09T01:54:27;95898.91;;;19.07;73.44
26978;BME280;56314;48.088;11.642;2023-07-09T01:56:52;95898.03;;;18.98;74.26
26978;BME280;56314;48.088;11.642;2023-07-09T01:59:26;95900.31;;;18.93;74.66
26978;BME280;56314;48.088;11.642;2023-07-09T02:01:52;95897.81;;;18.91;73.84
26978;BME280;56314;48.088;11.642;2023-07-09T02:04:18;95905.44;;;18.86;73.96
26978;BME280;56314;48.088;11.642;2023-07-09T02:06:44;95902.09;;;18.84;74.94
26978;BME280;56314;48.088;11.642;2023-07-09T02:09:09;95902.09;;;18.84;74.68
26978;BME280;56314;48.088;11.642;2023-07-09T02:11:34;95906.53;;;18.75;75.25
26978;BME280;56314;48.088;11.642;2023-07-09T02:14:00;95905.84;;;18.73;75.43
26978;BME280;56314;48.088;11.642;2023-07-09T02:16:25;95904.34;;;18.71;75.60
26978;BME280;56314;48.088;11.642;2023-07-09T02:18:50;95902.66;;;18.70;75.83
26978;BME280;56314;48.088;11.642;2023-07-09T02:21:16;95903.31;;;18.64;76.02
26978;BME280;56314;48.088;11.642;2023-07-09T02:23:41;95909.63;;;18.63;76.07
26978;BME280;56314;48.088;11.642;2023-07-09T02:26:06;95907.63;;;18.65;75.94
26978;BME280;56314;48.088;11.642;2023-07-09T02:28:31;95901.25;;;18.57;76.03
26978;BME280;56314;48.088;11.642;2023-07-09T02:30:57;95904.88;;;18.48;76.27
26978;BME280;56314;48.088;11.642;2023-07-09T02:33:22;95906.00;;;18.45;75.92
26978;BME280;56314;48.088;11.642;2023-07-09T02:35:48;95908.34;;;18.49;75.91
26978;BME280;56314;48.088;11.642;2023-07-09T02:38:14;95911.38;;;18.54;75.82
26978;BME280;56314;48.088;11.642;2023-07-09T02:40:39;95905.63;;;18.40;76.65
26978;BME280;56314;48.088;11.642;2023-07-09T02:43:04;95909.44;;;18.38;77.65
26978;BME280;56314;48.088;11.642;2023-07-09T02:45:29;95900.63;;;18.37;77.22
26978;BME280;56314;48.088;11.642;2023-07-09T02:47:55;95905.63;;;18.40;76.76
26978;BME280;56314;48.088;11.642;2023-07-09T02:50:20;95908.59;;;18.37;77.28
26978;BME280;56314;48.088;11.642;2023-07-09T02:52:46;95913.44;;;18.42;76.75
26978;BME280;56314;48.088;11.642;2023-07-09T02:55:11;95912.47;;;18.43;76.61
26978;BME280;56314;48.088;11.642;2023-07-09T02:57:37;95910.78;;;18.42;76.90
26978;BME280;56314;48.088;11.642;2023-07-09T03:00:02;95900.78;;;18.36;77.08
26978;BME280;56314;48.088;11.642;2023-07-09T03:02:30;95911.72;;;18.33;77.33
26978;BME280;56314;48.088;11.642;2023-07-09T03:04:55;95912.88;;;18.30;76.92
26978;BME280;56314;48.088;11.642;2023-07-09T03:07:21;95911.19;;;18.29;77.20
26978;BME280;56314;48.088;11.642;2023-07-09T03:09:46;95905.59;;;18.32;77.73
26978;BME280;56314;48.088;11.642;2023-07-09T03:12:11;95915.06;;;18.35;77.62
26978;BME280;56314;48.088;11.642;2023-07-09T03:14:37;95924.53;;;18.37;77.45
26978;BME280;56314;48.088;11.642;2023-07-09T03:17:02;95921.41;;;18.42;77.08
26978;BME280;56314;48.088;11.642;2023-07-09T03:19:28;95920.06;;;18.38;76.97
26978;BME280;56314;48.088;11.642;2023-07-09T03:21:53;95916.72;;;18.36;78.12
26978;BME280;56314;48.088;11.642;2023-07-09T03:24:19;95919.69;;;18.33;78.30
26978;BME280;56314;48.088;11.642;2023-07-09T03:26:45;95924.72;;;18.36;77.83
26978;BME280;56314;48.088;11.642;2023-07-09T03:29:11;95921.19;;;18.35;77.91
26978;BME280;56314;48.088;11.642;2023-07-09T03:31:36;95924.03;;;18.34;77.49
26978;BME280;56314;48.088;11.642;2023-07-09T03:34:01;95929.41;;;18.42;77.11
26978;BME280;56314;48.088;11.642;2023-07-09T03:36:27;95929.03;;;18.37;78.17
26978;BME280;56314;48.088;11.642;2023-07-09T03:38:52;95925.69;;;18.35;77.32
26978;BME280;56314;48.088;11.642;2023-07-09T03:41:17;95932.53;;;18.37;77.76
26978;BME280;56314;48.088;11.642;2023-07-09T03:43:43;95931.47;;;18.30;77.99
26978;BME280;56314;48.088;11.642;2023-07-09T03:46:08;95933.97;;;18.31;77.87
26978;BME280;56314;48.088;11.642;2023-07-09T03:48:34;95930.25;;;18.24;78.11
26978;BME280;56314;48.088;11.642;2023-07-09T03:50:59;95931.78;;;18.27;77.56
26978;BME280;56314;48.088;11.642;2023-07-09T03:53:25;95933.97;;;18.31;77.83
26978;BME280;56314;48.088;11.642;2023-07-09T03:55:54;95938.16;;;18.34;77.81
26978;BME280;56314;48.088;11.642;2023-07-09T03:58:20;95938.31;;;18.33;77.29
26978;BME280;56314;48.088;11.642;2023-07-09T04:00:46;95935.59;;;18.24;77.84
26978;BME280;56314;48.088;11.642;2023-07-09T04:03:11;95935.41;;;18.26;78.17
26978;BME280;56314;48.088;11.642;2023-07-09T04:05:37;95936.72;;;18.22;78.62
26978;BME280;56314;48.088;11.642;2023-07-09T04:08:03;95937.78;;;18.29;78.35
26978;BME280;56314;48.088;11.642;2023-07-09T04:10:28;95936.34;;;18.35;77.60
26978;BME280;56314;48.088;11.642;2023-07-09T04:12:54;95939.56;;;18.46;76.59
26978;BME280;56314;48.088;11.642;2023-07-09T04:15:19;95941.47;;;18.54;76.03
26978;BME280;56314;48.088;11.642;2023-07-09T04:17:44;95942.44;;;18.53;76.08
26978;BME280;56314;48.088;11.642;2023-07-09T04:20:10;95943.28;;;18.54;76.20
26978;BME280;56314;48.088;11.642;2023-07-09T04:22:36;95940.69;;;18.62;76.15
26978;BME280;56314;48.088;11.642;2023-07-09T04:25:03;95931.72;;;18.63;77.06
26978;BME280;56314;48.088;11.642;2023-07-09T04:27:29;95945.22;;;18.70;77.85
26978;BME280;56314;48.088;11.642;2023-07-09T04:29:55;95946.91;;;18.71;77.35
26978;BME280;56314;48.088;11.642;2023-07-09T04:32:21;95946.06;;;18.70;76.81
26978;BME280;56314;48.088;11.642;2023-07-09T04:34:46;95947.72;;;18.71;76.68
26978;BME280;56314;48.088;11.642;2023-07-09T04:37:12;95948.56;;;18.72;77.16
26978;BME280;56314;48.088;11.642;2023-07-09T04:39:38;95953.13;;;18.80;77.24
26978;BME280;56314;48.088;11.642;2023-07-09T04:42:05;95949.13;;;18.84;76.74
26978;BME280;56314;48.088;11.642;2023-07-09T04:44:31;95956.88;;;18.95;76.04
26978;BME280;56314;48.088;11.642;2023-07-09T04:46:56;95948.47;;;19.00;76.24
26978;BME280;56314;48.088;11.642;2023-07-09T04:49:21;95955.81;;;19.06;76.08
26978;BME280;56314;48.088;11.642;2023-07-09T04:51:47;95954.50;;;19.10;75.85
26978;BME280;56314;48.088;11.642;2023-07-09T04:54:12;95948.41;;;19.18;75.55
26978;BME280;56314;48.088;11.642;2023-07-09T04:56:39;95952.97;;;19.34;75.33
26978;BME280;56314;48.088;11.642;2023-07-09T04:59:04;95957.72;;;19.57;74.39
26978;BME280;56314;48.088;11.642;2023-07-09T05:01:29;95956.00;;;19.90;73.86
26978;BME280;56314;48.088;11.642;2023-07-09T05:03:55;95941.41;;;20.36;70.97
26978;BME280;56314;48.088;11.642;2023-07-09T05:06:20;95945.56;;;20.88;68.83
26978;BME280;56314;48.088;11.642;2023-07-09T05:08:47;95940.38;;;21.59;66.65
26978;BME280;56314;48.088;11.642;2023-07-09T05:11:14;95937.31;;;22.49;63.52
26978;BME280;56314;48.088;11.642;2023-07-09T05:13:39;95932.25;;;23.52;59.60
26978;BME280;56314;48.088;11.642;2023-07-09T05:16:05;95929.72;;;24.82;54.46
26978;BME280;56314;48.088;11.642;2023-07-09T05:18:30;95928.19;;;25.65;51.85
26978;BME280;56314;48.088;11.642;2023-07-09T05:20:55;95930.28;;;26.38;50.65
26978;BME280;56314;48.088;11.642;2023-07-09T05:23:25;95929.25;;;26.86;47.50
26978;BME280;56314;48.088;11.642;2023-07-09T05:25:58;95926.47;;;27.60;45.39
26978;BME280;56314;48.088;11.642;2023-07-09T05:28:23;95942.84;;;28.11;44.56
26978;BME280;56314;48.088;11.642;2023-07-09T05:30:48;95926.25;;;28.71;42.83
26978;BME280;56314;48.088;11.642;2023-07-09T05:33:15;95930.72;;;29.10;42.23
26978;BME280;56314;48.088;11.642;2023-07-09T05:35:42;95929.38;;;29.63;41.37
26978;BME280;56314;48.088;11.642;2023-07-09T05:38:07;95929.00;;;29.90;40.86
26978;BME280;56314;48.088;11.642;2023-07-09T05:40:32;95933.94;;;30.00;39.75
26978;BME280;56314;48.088;11.642;2023-07-09T05:42:58;95930.16;;;30.31;38.41
26978;BME280;56314;48.088;11.642;2023-07-09T05:45:23;95936.59;;;30.49;38.57
26978;BME280;56314;48.088;11.642;2023-07-09T05:47:48;95940.22;;;30.97;38.02
26978;BME280;56314;48.088;11.642;2023-07-09T05:50:14;95945.09;;;31.19;38.83
26978;BME280;56314;48.088;11.642;2023-07-09T05:52:39;95945.19;;;31.47;37.04
26978;BME280;56314;48.088;11.642;2023-07-09T05:55:05;95946.25;;;31.46;37.55
26978;BME280;56314;48.088;11.642;2023-07-09T05:57:30;95948.22;;;32.16;37.21
26978;BME280;56314;48.088;11.642;2023-07-09T05:59:56;95945.69;;;31.97;37.13
26978;BME280;56314;48.088;11.642;2023-07-09T06:02:21;95949.03;;;32.28;37.31
26978;BME280;56314;48.088;11.642;2023-07-09T06:04:47;95955.91;;;31.54;37.52
26978;BME280;56314;48.088;11.642;2023-07-09T06:07:16;95946.94;;;31.06;38.55
26978;BME280;56314;48.088;11.642;2023-07-09T06:09:42;95947.41;;;31.62;36.27
26978;BME280;56314;48.088;11.642;2023-07-09T06:12:08;95954.84;;;32.08;36.09
26978;BME280;56314;48.088;11.642;2023-07-09T06:14:34;95950.72;;;32.46;35.78
26978;BME280;56314;48.088;11.642;2023-07-09T06:17:00;95950.97;;;33.08;35.41
26978;BME280;56314;48.088;11.642;2023-07-09T06:19:26;95957.09;;;33.20;33.95
26978;BME280;56314;48.088;11.642;2023-07-09T06:21:52;95955.75;;;33.96;31.79
26978;BME280;56314;48.088;11.642;2023-07-09T06:24:17;95951.69;;;34.21;30.93
26978;BME280;56314;48.088;11.642;2023-07-09T06:26:43;95957.41;;;34.47;30.98
26978;BME280;56314;48.088;11.642;2023-07-09T06:29:08;95949.31;;;34.84;30.07
26978;BME280;56314;48.088;11.642;2023-07-09T06:31:33;95949.84;;;35.14;29.99
26978;BME280;56314;48.088;11.642;2023-07-09T06:33:59;95957.56;;;35.70;28.84
26978;BME280;56314;48.088;11.642;2023-07-09T06:36:24;95952.53;;;35.47;28.78
26978;BME280;56314;48.088;11.642;2023-07-09T06:38:50;95966.13;;;35.89;29.05
26978;BME280;56314;48.088;11.642;2023-07-09T06:41:16;95959.91;;;35.99;28.39
26978;BME280;56314;48.088;11.642;2023-07-09T06:43:42;95960.06;;;35.82;28.23
26978;BME280;56314;48.088;11.642;2023-07-09T06:46:10;95955.72;;;35.38;28.11
26978;BME280;56314;48.088;11.642;2023-07-09T06:48:36;95949.16;;;35.39;29.48
26978;BME280;56314;48.088;11.642;2023-07-09T06:51:01;95957.66;;;35.91;28.37
26978;BME280;56314;48.088;11.642;2023-07-09T06:53:28;95954.91;;;36.80;27.20
26978;BME280;56314;48.088;11.642;2023-07-09T06:55:54;95952.44;;;37.31;26.46
26978;BME280;56314;48.088;11.642;2023-07-09T06:58:26;95952.44;;;37.51;26.12
26978;BME280;56314;48.088;11.642;2023-07-09T07:00:53;95945.06;;;37.31;25.36
26978;BME280;56314;48.088;11.642;2023-07-09T07:03:20;95957.34;;;37.60;25.87
26978;BME280;56314;48.088;11.642;2023-07-09T07:05:46;95953.97;;;37.99;24.94
26978;BME280;56314;48.088;11.642;2023-07-09T07:08:15;95951.78;;;37.85;25.21
26978;BME280;56314;48.088;11.642;2023-07-09T07:10:41;95954.25;;;37.92;23.89
26978;BME280;56314;48.088;11.642;2023-07-09T07:13:07;95950.97;;;37.90;24.08
26978;BME280;56314;48.088;11.642;2023-07-09T07:15:33;95956.22;;;38.31;23.89
26978;BME280;56314;48.088;11.642;2023-07-09T07:17:58;95947.50;;;38.29;24.31
26978;BME280;56314;48.088;11.642;2023-07-09T07:20:23;95950.75;;;38.42;24.08
26978;BME280;56314;48.088;11.642;2023-07-09T07:22:49;95955.56;;;38.05;24.50
26978;BME280;56314;48.088;11.642;2023-07-09T07:25:14;95952.22;;;38.13;24.38
26978;BME280;56314;48.088;11.642;2023-07-09T07:27:40;95952.75;;;38.21;23.20
26978;BME280;56314;48.088;11.642;2023-07-09T07:30:06;95948.38;;;38.19;23.58
26978;BME280;56314;48.088;11.642;2023-07-09T07:32:35;95948.84;;;38.37;23.18
26978;BME280;56314;48.088;11.642;2023-07-09T07:35:01;95949.56;;;37.98;23.77
26978;BME280;56314;48.088;11.642;2023-07-09T07:37:26;95944.16;;;37.67;24.35
26978;BME280;56314;48.088;11.642;2023-07-09T07:39:51;95952.72;;;38.71;21.95
26978;BME280;56314;48.088;11.642;2023-07-09T07:42:17;95946.00;;;38.92;21.66
26978;BME280;56314;48.088;11.642;2023-07-09T07:44:42;95946.69;;;38.74;22.42
26978;BME280;56314;48.088;11.642;2023-07-09T07:47:08;95938.38;;;38.44;22.88
26978;BME280;56314;48.088;11.642;2023-07-09T07:49:33;95940.03;;;38.40;22.70
26978;BME280;56314;48.088;11.642;2023-07-09T07:51:58;95941.66;;;38.46;23.40
26978;BME280;56314;48.088;11.642;2023-07-09T07:54:24;95935.66;;;38.79;22.49
26978;BME280;56314;48.088;11.642;2023-07-09T07:56:49;95940.03;;;38.85;23.26
26978;BME280;56314;48.088;11.642;2023-07-09T07:59:17;95937.16;;;39.01;22.76
26978;BME280;56314;48.088;11.642;2023-07-09T08:01:42;95932.88;;;38.89;21.97
26978;BME280;56314;48.088;11.642;2023-07-09T08:04:07;95935.44;;;39.39;22.02
26978;BME280;56314;48.088;11.642;2023-07-09T08:06:35;95937.19;;;39.25;21.23
26978;BME280;56314;48.088;11.642;2023-07-09T08:09:00;95936.50;;;38.74;22.64
26978;BME280;56314;48.088;11.642;2023-07-09T08:11:26;95930.44;;;38.83;22.36
26978;BME280;56314;48.088;11.642;2023-07-09T08:13:53;95930.94;;;38.90;22.59
26978;BME280;56314;48.088;11.642;2023-07-09T08:16:18;95937.03;;;38.82;21.23
26978;BME280;56314;48.088;11.642;2023-07-09T08:18:44;95936.94;;;38.97;22.30
26978;BME280;56314;48.088;11.642;2023-07-09T08:21:09;95930.06;;;38.94;21.25
26978;BME280;56314;48.088;11.642;2023-07-09T08:23:35;95938.94;;;38.86;19.76
26978;BME280;56314;48.088;11.642;2023-07-09T08:26:02;95931.13;;;38.99;20.37
26978;BME280;56314;48.088;11.642;2023-07-09T08:28:28;95929.09;;;39.09;21.51
26978;BME280;56314;48.088;11.642;2023-07-09T08:30:54;95930.94;;;39.19;21.20
26978;BME280;56314;48.088;11.642;2023-07-09T08:33:21;95933.16;;;39.17;21.09
26978;BME280;56314;48.088;11.642;2023-07-09T08:35:50;95923.09;;;39.07;20.96
26978;BME280;56314;48.088;11.642;2023-07-09T08:38:16;95923.03;;;39.13;20.97
26978;BME280;56314;48.088;11.642;2023-07-09T08:40:50;95925.94;;;38.97;21.82
26978;BME280;56314;48.088;11.642;2023-07-09T08:43:32;95926.78;;;39.22;21.35
26978;BME280;56314;48.088;11.642;2023-07-09T08:46:07;95922.78;;;39.44;21.18
26978;BME280;56314;48.088;11.642;2023-07-09T08:48:34;95924.44;;;39.39;19.14
26978;BME280;56314;48.088;11.642;2023-07-09T08:51:12;95929.47;;;39.32;18.94
26978;BME280;56314;48.088;11.642;2023-07-09T08:53:44;95926.31;;;38.85;19.34
26978;BME280;56314;48.088;11.642;2023-07-09T08:56:12;95923.97;;;39.03;19.35
26978;BME280;56314;48.088;11.642;2023-07-09T08:58:39;95921.03;;;38.54;20.63
26978;BME280;56314;48.088;11.642;2023-07-09T09:01:14;95917.50;;;38.88;19.86
26978;BME280;56314;48.088;11.642;2023-07-09T09:03:55;95919.63;;;38.97;20.50
26978;BME280;56314;48.088;11.642;2023-07-09T09:06:28;95923.47;;;39.30;21.09
26978;BME280;56314;48.088;11.642;2023-07-09T09:09:24;95916.16;;;39.45;19.82
26978;BME280;56314;48.088;11.642;2023-07-09T09:12:08;95916.03;;;39.31;20.10
26978;BME280;56314;48.088;11.642;2023-07-09T09:14:42;95912.56;;;39.20;19.27
26978;BME280;56314;48.088;11.642;2023-07-09T09:17:16;95917.53;;;39.42;19.65
26978;BME280;56314;48.088;11.642;2023-07-09T09:20:04;95919.09;;;39.78;19.50
26978;BME280;56314;48.088;11.642;2023-07-09T09:22:40;95922.66;;;39.78;18.59
26978;BME280;56314;48.088;11.642;2023-07-09T09:25:20;95914.06;;;39.85;18.81
26978;BME280;56314;48.088;11.642;2023-07-09T09:27:47;95911.44;;;39.75;19.27
26978;BME280;56314;48.088;11.642;2023-07-09T09:30:14;95920.84;;;39.68;19.58
26978;BME280;56314;48.088;11.642;2023-07-09T09:32:47;95924.69;;;39.43;18.78
26978;BME280;56314;48.088;11.642;2023-07-09T09:35:16;95920.00;;;38.85;18.28
26978;BME280;56314;48.088;11.642;2023-07-09T09:37:49;95915.78;;;39.22;18.93
26978;BME280;56314;48.088;11.642;2023-07-09T09:40:16;95918.50;;;39.32;20.25
26978;BME280;56314;48.088;11.642;2023-07-09T09:42:42;95913.56;;;39.29;19.56
26978;BME280;56314;48.088;11.642;2023-07-09T09:45:14;95918.09;;;39.44;20.49
26978;BME280;56314;48.088;11.642;2023-07-09T09:47:41;95920.69;;;38.16;21.46
26978;BME280;56314;48.088;11.642;2023-07-09T09:50:06;95918.25;;;36.61;22.57
26978;BME280;56314;48.088;11.642;2023-07-09T09:52:32;95908.41;;;37.01;22.29
26978;BME280;56314;48.088;11.642;2023-07-09T09:55:10;95911.63;;;37.50;22.39
26978;BME280;56314;48.088;11.642;2023-07-09T09:57:36;95910.97;;;37.79;21.09
26978;BME280;56314;48.088;11.642;2023-07-09T10:00:02;95907.00;;;38.16;21.39
26978;BME280;56314;48.088;11.642;2023-07-09T10:02:30;95905.25;;;38.30;20.86
26978;BME280;56314;48.088;11.642;2023-07-09T10:04:56;95911.06;;;37.58;21.13
26978;BME280;56314;48.088;11.642;2023-07-09T10:09:55;95906.81;;;37.97;22.06
26978;BME280;56314;48.088;11.642;2023-07-09T10:12:36;95914.19;;;38.52;20.58
26978;BME280;56314;48.088;11.642;2023-07-09T10:15:17;95906.91;;;39.06;21.23
26978;BME280;56314;48.088;11.642;2023-07-09T10:20:53;95909.53;;;39.46;19.27
26978;BME280;56314;48.088;11.642;2023-07-09T10:23:29;95904.78;;;39.81;20.38
26978;BME280;56314;48.088;11.642;2023-07-09T10:26:27;95902.72;;;40.11;19.15
26978;BME280;56314;48.088;11.642;2023-07-09T10:39:34;95911.53;;;38.76;19.66
26978;BME280;56314;48.088;11.642;2023-07-09T10:42:03;95915.25;;;38.56;19.80
26978;BME280;56314;48.088;11.642;2023-07-09T10:44:34;95912.41;;;38.26;20.10
26978;BME280;56314;48.088;11.642;2023-07-09T10:47:06;95913.97;;;37.82;19.61
26978;BME280;56314;48.088;11.642;2023-07-09T10:49:38;95909.88;;;38.40;20.95
26978;BME280;56314;48.088;11.642;2023-07-09T10:52:28;95907.97;;;38.75;20.50
26978;BME280;56314;48.088;11.642;2023-07-09T10:55:13;95905.56;;;39.03;18.66
26978;BME280;56314;48.088;11.642;2023-07-09T10:57:58;95905.47;;;39.14;19.30
26978;BME280;56314;48.088;11.642;2023-07-09T11:00:36;95907.41;;;38.73;19.80
26978;BME280;56314;48.088;11.642;2023-07-09T11:03:24;95904.47;;;37.59;20.89
26978;BME280;56314;48.088;11.642;2023-07-09T11:05:53;95902.13;;;36.80;21.15
26978;BME280;56314;48.088;11.642;2023-07-09T11:08:28;95904.97;;;35.96;21.25
26978;BME280;56314;48.088;11.642;2023-07-09T11:10:59;95900.81;;;35.83;20.98
26978;BME280;56314;48.088;11.642;2023-07-09T11:16:13;95901.59;;;34.55;23.63
26978;BME280;56314;48.088;11.642;2023-07-09T11:18:40;95900.53;;;34.06;25.13
26978;BME280;56314;48.088;11.642;2023-07-09T11:21:16;95900.25;;;33.58;24.67
26978;BME280;56314;48.088;11.642;2023-07-09T11:23:59;95902.06;;;33.13;26.25
26978;BME280;56314;48.088;11.642;2023-07-09T11:26:33;95892.28;;;32.95;27.06
26978;BME280;56314;48.088;11.642;2023-07-09T11:31:34;95904.25;;;33.33;27.45
26978;BME280;56314;48.088;11.642;2023-07-09T11:34:15;95885.66;;;34.41;24.15
26978;BME280;56314;48.088;11.642;2023-07-09T11:36:58;95886.00;;;35.20;24.31
26978;BME280;56314;48.088;11.642;2023-07-09T11:39:42;95882.81;;;35.92;23.39
26978;BME280;56314;48.088;11.642;2023-07-09T11:42:30;95880.47;;;36.37;22.64
26978;BME280;56314;48.088;11.642;2023-07-09T11:45:07;95875.59;;;36.70;21.88
26978;BME280;56314;48.088;11.642;2023-07-09T11:47:38;95871.72;;;37.18;22.41
26978;BME280;56314;48.088;11.642;2023-07-09T11:50:16;95865.41;;;37.22;20.83
26978;BME280;56314;48.088;11.642;2023-07-09T11:52:54;95860.72;;;37.33;21.94
26978;BME280;56314;48.088;11.642;2023-07-09T11:55:46;95858.81;;;37.28;20.77
26978;BME280;56314;48.088;11.642;2023-07-09T11:58:16;95856.94;;;37.13;21.25
26978;BME280;56314;48.088;11.642;2023-07-09T12:00:48;95860.44;;;37.30;19.76
26978;BME280;56314;48.088;11.642;2023-07-09T12:03:26;95853.69;;;36.86;20.50
26978;BME280;56314;48.088;11.642;2023-07-09T12:05:59;95849.31;;;36.85;20.63
26978;BME280;56314;48.088;11.642;2023-07-09T12:08:37;95855.63;;;36.64;20.44
26978;BME280;56314;48.088;11.642;2023-07-09T12:11:04;95854.59;;;35.66;20.88
26978;BME280;56314;48.088;11.642;2023-07-09T12:13:36;95853.19;;;35.05;22.21
26978;BME280;56314;48.088;11.642;2023-07-09T12:16:02;95838.94;;;34.65;22.80
26978;BME280;56314;48.088;11.642;2023-07-09T12:18:29;95851.72;;;34.27;24.43
26978;BME280;56314;48.088;11.642;2023-07-09T12:20:55;95841.00;;;33.92;24.74
26978;BME280;56314;48.088;11.642;2023-07-09T12:23:31;95842.38;;;33.68;25.77
26978;BME280;56314;48.088;11.642;2023-07-09T12:26:02;95840.34;;;33.36;25.29
26978;BME280;56314;48.088;11.642;2023-07-09T12:28:28;95831.38;;;33.35;26.50
26978;BME280;56314;48.088;11.642;2023-07-09T12:30:54;95830.50;;;34.01;26.32
26978;BME280;56314;48.088;11.642;2023-07-09T12:33:22;95833.41;;;34.49;25.59
26978;BME280;56314;48.088;11.642;2023-07-09T12:35:55;95825.66;;;35.11;24.96
26978;BME280;56314;48.088;11.642;2023-07-09T12:38:22;95817.56;;;35.32;24.39
26978;BME280;56314;48.088;11.642;2023-07-09T12:40:50;95815.16;;;35.41;23.90
26978;BME280;56314;48.088;11.642;2023-07-09T12:43:21;95816.56;;;35.43;23.72
26978;BME280;56314;48.088;11.642;2023-07-09T12:45:48;95822.38;;;35.09;23.76
26978;BME280;56314;48.088;11.642;2023-07-09T12:48:14;95828.03;;;34.65;24.13
26978;BME280;56314;48.088;11.642;2023-07-09T12:50:39;95826.56;;;34.19;24.57
26978;BME280;56314;48.088;11.642;2023-07-09T12:53:14;95824.94;;;33.69;25.03
26978;BME280;56314;48.088;11.642;2023-07-09T12:55:42;95822.03;;;33.31;25.52
26978;BME280;56314;48.088;11.642;2023-07-09T12:58:11;95807.03;;;33.51;25.15
26978;BME280;56314;48.088;11.642;2023-07-09T13:00:39;95812.97;;;33.70;24.94
26978;BME280;56314;48.088;11.642;2023-07-09T13:03:13;95814.63;;;33.93;24.63
26978;BME280;56314;48.088;11.642;2023-07-09T13:05:51;95804.41;;;34.11;24.16
26978;BME280;56314;48.088;11.642;2023-07-09T13:08:17;95805.06;;;34.23;24.49
26978;BME280;56314;48.088;11.642;2023-07-09T13:10:44;95801.25;;;34.24;24.24
26978;BME280;56314;48.088;11.642;2023-07-09T13:13:13;95795.88;;;34.34;24.19
26978;BME280;56314;48.088;11.642;2023-07-09T13:15:43;95785.97;;;34.50;25.37
26978;BME280;56314;48.088;11.642;2023-07-09T13:18:14;95788.38;;;34.47;24.70
26978;BME280;56314;48.088;11.642;2023-07-09T13:20:42;95781.56;;;34.44;23.98
26978;BME280;56314;48.088;11.642;2023-07-09T13:23:17;95793.88;;;34.52;25.58